sensor_id;sensor_type;location;lat;lon;timestamp;pressure;altitude;pressure_sealevel;temperature;humidity
75312;BME280;63906;55.686;37.532;2023-05-10T00:02:42;100523.56;;;7.92;44.44
75312;BME280;63906;55.686;37.532;2023-05-10T00:07:43;100514.81;;;7.83;44.28
75312;BME280;63906;55.686;37.532;2023-05-10T00:12:46;100556.53;;;8.13;44.66
75312;BME280;63906;55.686;37.532;2023-05-10T00:17:49;100446.03;;;7.46;45.11
75312;BME280;63906;55.686;37.532;2023-05-10T00:22:50;100551.59;;;8.09;44.01
75312;BME280;63906;55.686;37.532;2023-05-10T00:27:51;100558.84;;;8.16;44.51
75312;BME280;63906;55.686;37.532;2023-05-10T00:32:51;100553.69;;;8.06;44.78
75312;BME280;63906;55.686;37.532;2023-05-10T00:37:52;100488.22;;;7.61;45.32
75312;BME280;63906;55.686;37.532;2023-05-10T00:42:52;100544.88;;;7.89;45.93
75312;BME280;63906;55.686;37.532;2023-05-10T00:47:53;100544.47;;;7.84;46.36
75312;BME280;63906;55.686;37.532;2023-05-10T00:52:55;100550.97;;;7.80;46.67
75312;BME280;63906;55.686;37.532;2023-05-10T00:57:55;100554.28;;;7.82;46.84
75312;BME280;63906;55.686;37.532;2023-05-10T01:02:56;100524.91;;;7.61;46.54
75312;BME280;63906;55.686;37.532;2023-05-10T01:07:57;100546.06;;;7.77;45.91
75312;BME280;63906;55.686;37.532;2023-05-10T01:12:59;100532.84;;;7.69;46.85
75312;BME280;63906;55.686;37.532;2023-05-10T01:18:00;100516.63;;;7.65;47.61
75312;BME280;63906;55.686;37.532;2023-05-10T01:33:59;100554.59;;;7.79;46.84
75312;BME280;63906;55.686;37.532;2023-05-10T01:39:15;100552.94;;;7.78;47.49
75312;BME280;63906;55.686;37.532;2023-05-10T01:44:35;100512.78;;;7.60;47.38
75312;BME280;63906;55.686;37.532;2023-05-10T01:49:46;100543.13;;;7.80;48.02
75312;BME280;63906;55.686;37.532;2023-05-10T01:55:00;100545.47;;;7.83;48.12
75312;BME280;63906;55.686;37.532;2023-05-10T02:00:03;100533.63;;;7.79;48.44
75312;BME280;63906;55.686;37.532;2023-05-10T02:05:08;100544.16;;;7.87;48.03
75312;BME280;63906;55.686;37.532;2023-05-10T02:10:10;100539.63;;;7.89;47.65
75312;BME280;63906;55.686;37.532;2023-05-10T02:15:13;100522.31;;;7.78;47.97
75312;BME280;63906;55.686;37.532;2023-05-10T02:20:16;100514.00;;;7.83;47.63
75312;BME280;63906;55.686;37.532;2023-05-10T02:25:20;100507.84;;;7.92;46.64
75312;BME280;63906;55.686;37.532;2023-05-10T02:30:22;100503.13;;;8.14;43.48
75312;BME280;63906;55.686;37.532;2023-05-10T02:35:23;100522.44;;;8.56;40.96
75312;BME280;63906;55.686;37.532;2023-05-10T02:40:27;100491.72;;;8.75;41.83
75312;BME280;63906;55.686;37.532;2023-05-10T02:45:30;100526.50;;;9.11;39.71
75312;BME280;63906;55.686;37.532;2023-05-10T02:50:33;100456.88;;;8.99;38.17
75312;BME280;63906;55.686;37.532;2023-05-10T03:00:55;100497.41;;;9.47;38.63
75312;BME280;63906;55.686;37.532;2023-05-10T03:05:56;100518.97;;;9.75;36.89
75312;BME280;63906;55.686;37.532;2023-05-10T03:16:35;100484.16;;;9.89;35.77
75312;BME280;63906;55.686;37.532;2023-05-10T03:21:38;100512.75;;;10.24;35.56
75312;BME280;63906;55.686;37.532;2023-05-10T03:26:43;100494.97;;;10.18;35.37
75312;BME280;63906;55.686;37.532;2023-05-10T03:31:45;100479.22;;;10.27;34.53
75312;BME280;63906;55.686;37.532;2023-05-10T03:36:46;100493.19;;;10.35;34.93
75312;BME280;63906;55.686;37.532;2023-05-10T03:41:46;100494.63;;;10.54;33.19
75312;BME280;63906;55.686;37.532;2023-05-10T03:46:47;100508.75;;;10.69;34.32
75312;BME280;63906;55.686;37.532;2023-05-10T03:51:47;100513.66;;;10.81;34.04
75312;BME280;63906;55.686;37.532;2023-05-10T03:56:48;100509.66;;;10.93;33.40
75312;BME280;63906;55.686;37.532;2023-05-10T04:01:48;100497.69;;;10.82;33.79
75312;BME280;63906;55.686;37.532;2023-05-10T04:06:49;100479.03;;;10.92;33.14
75312;BME280;63906;55.686;37.532;2023-05-10T04:11:50;100502.78;;;11.23;32.73
75312;BME280;63906;55.686;37.532;2023-05-10T04:16:50;100505.53;;;11.38;32.64
75312;BME280;63906;55.686;37.532;2023-05-10T04:21:51;100501.78;;;11.55;32.57
75312;BME280;63906;55.686;37.532;2023-05-10T04:26:51;100506.31;;;11.69;31.63
75312;BME280;63906;55.686;37.532;2023-05-10T04:31:52;100479.16;;;11.60;32.54
75312;BME280;63906;55.686;37.532;2023-05-10T04:36:53;100472.47;;;11.81;32.05
75312;BME280;63906;55.686;37.532;2023-05-10T04:41:54;100499.59;;;12.12;31.73
75312;BME280;63906;55.686;37.532;2023-05-10T04:46:54;100478.88;;;12.24;31.59
75312;BME280;63906;55.686;37.532;2023-05-10T04:51:55;100468.84;;;12.34;31.46
75312;BME280;63906;55.686;37.532;2023-05-10T04:56:56;100468.31;;;12.54;30.81
75312;BME280;63906;55.686;37.532;2023-05-10T05:01:56;100461.16;;;12.62;31.10
75312;BME280;63906;55.686;37.532;2023-05-10T05:06:57;100483.16;;;12.99;31.14
75312;BME280;63906;55.686;37.532;2023-05-10T05:11:58;100456.81;;;12.91;29.98
75312;BME280;63906;55.686;37.532;2023-05-10T05:16:58;100459.00;;;13.17;29.92
75312;BME280;63906;55.686;37.532;2023-05-10T05:21:59;100453.81;;;13.24;28.50
75312;BME280;63906;55.686;37.532;2023-05-10T05:27:00;100437.88;;;13.38;28.99
75312;BME280;63906;55.686;37.532;2023-05-10T05:32:01;100445.75;;;13.53;29.19
75312;BME280;63906;55.686;37.532;2023-05-10T05:37:01;100461.31;;;13.84;28.25
75312;BME280;63906;55.686;37.532;2023-05-10T05:42:02;100461.00;;;13.94;27.57
75312;BME280;63906;55.686;37.532;2023-05-10T05:47:03;100449.72;;;13.85;27.51
75312;BME280;63906;55.686;37.532;2023-05-10T05:52:04;100444.50;;;13.92;27.67
75312;BME280;63906;55.686;37.532;2023-05-10T05:57:05;100423.22;;;14.07;27.89
75312;BME280;63906;55.686;37.532;2023-05-10T06:02:05;100452.31;;;14.63;27.40
75312;BME280;63906;55.686;37.532;2023-05-10T06:07:06;100452.63;;;14.81;27.00
75312;BME280;63906;55.686;37.532;2023-05-10T06:12:06;100442.31;;;14.99;26.77
75312;BME280;63906;55.686;37.532;2023-05-10T06:17:07;100423.34;;;15.02;25.68
75312;BME280;63906;55.686;37.532;2023-05-10T06:22:07;100422.19;;;15.25;26.23
75312;BME280;63906;55.686;37.532;2023-05-10T06:27:08;100442.03;;;15.55;25.60
75312;BME280;63906;55.686;37.532;2023-05-10T06:32:11;100435.91;;;15.61;25.11
75312;BME280;63906;55.686;37.532;2023-05-10T06:37:11;100433.91;;;15.77;24.91
75312;BME280;63906;55.686;37.532;2023-05-10T06:42:12;100433.09;;;16.23;23.67
75312;BME280;63906;55.686;37.532;2023-05-10T06:47:13;100416.53;;;16.14;22.35
75312;BME280;63906;55.686;37.532;2023-05-10T06:52:13;100425.94;;;16.17;22.83
75312;BME280;63906;55.686;37.532;2023-05-10T06:57:14;100414.88;;;16.20;22.62
75312;BME280;63906;55.686;37.532;2023-05-10T07:02:19;100377.69;;;16.26;21.90
75312;BME280;63906;55.686;37.532;2023-05-10T07:07:20;100390.66;;;16.67;21.67
75312;BME280;63906;55.686;37.532;2023-05-10T07:12:20;100388.59;;;16.69;21.54
75312;BME280;63906;55.686;37.532;2023-05-10T07:17:21;100406.56;;;16.81;21.64
75312;BME280;63906;55.686;37.532;2023-05-10T07:22:22;100408.75;;;16.97;22.02
75312;BME280;63906;55.686;37.532;2023-05-10T07:27:23;100341.34;;;16.78;21.71
75312;BME280;63906;55.686;37.532;2023-05-10T07:32:23;100362.31;;;16.93;21.41
75312;BME280;63906;55.686;37.532;2023-05-10T07:37:25;100407.47;;;17.06;21.56
75312;BME280;63906;55.686;37.532;2023-05-10T07:42:25;100397.09;;;16.98;21.57
75312;BME280;63906;55.686;37.532;2023-05-10T07:47:26;100365.53;;;17.02;21.50
75312;BME280;63906;55.686;37.532;2023-05-10T07:52:26;100341.31;;;17.16;21.04
75312;BME280;63906;55.686;37.532;2023-05-10T07:57:27;100377.16;;;17.45;21.20
75312;BME280;63906;55.686;37.532;2023-05-10T08:02:27;100381.84;;;17.75;21.21
75312;BME280;63906;55.686;37.532;2023-05-10T08:07:28;100380.84;;;17.94;20.84
75312;BME280;63906;55.686;37.532;2023-05-10T08:12:29;100374.31;;;17.72;20.50
75312;BME280;63906;55.686;37.532;2023-05-10T08:17:29;100370.84;;;17.40;21.77
75312;BME280;63906;55.686;37.532;2023-05-10T08:22:30;100349.28;;;17.48;21.00
75312;BME280;63906;55.686;37.532;2023-05-10T08:27:30;100351.88;;;17.30;21.19
75312;BME280;63906;55.686;37.532;2023-05-10T08:32:31;100332.75;;;17.14;21.58
75312;BME280;63906;55.686;37.532;2023-05-10T08:37:31;100320.31;;;17.02;22.09
75312;BME280;63906;55.686;37.532;2023-05-10T08:42:34;100314.13;;;17.14;22.14
75312;BME280;63906;55.686;37.532;2023-05-10T08:47:38;100324.59;;;17.09;21.08
75312;BME280;63906;55.686;37.532;2023-05-10T08:52:40;100338.78;;;16.45;21.66
75312;BME280;63906;55.686;37.532;2023-05-10T08:57:41;100340.53;;;16.13;23.42
75312;BME280;63906;55.686;37.532;2023-05-10T09:02:42;100332.97;;;16.17;23.44
75312;BME280;63906;55.686;37.532;2023-05-10T09:07:43;100323.31;;;16.35;22.71
75312;BME280;63906;55.686;37.532;2023-05-10T09:12:44;100306.16;;;16.31;22.09
75312;BME280;63906;55.686;37.532;2023-05-10T09:17:46;100325.25;;;16.60;21.59
75312;BME280;63906;55.686;37.532;2023-05-10T09:22:47;100299.91;;;17.27;20.68
75312;BME280;63906;55.686;37.532;2023-05-10T09:27:48;100286.63;;;17.70;19.85
75312;BME280;63906;55.686;37.532;2023-05-10T09:32:49;100304.94;;;18.03;19.97
75312;BME280;63906;55.686;37.532;2023-05-10T09:37:52;100283.94;;;17.77;21.97
75312;BME280;63906;55.686;37.532;2023-05-10T09:43:02;100272.06;;;17.73;22.39
75312;BME280;63906;55.686;37.532;2023-05-10T09:48:03;100286.13;;;18.83;20.49
75312;BME280;63906;55.686;37.532;2023-05-10T09:53:04;100276.34;;;19.43;19.68
75312;BME280;63906;55.686;37.532;2023-05-10T09:58:05;100274.84;;;20.91;17.58
75312;BME280;63906;55.686;37.532;2023-05-10T10:03:15;100272.69;;;21.38;17.93
75312;BME280;63906;55.686;37.532;2023-05-10T10:08:17;100264.75;;;23.39;16.71
75312;BME280;63906;55.686;37.532;2023-05-10T10:13:17;100264.78;;;23.86;16.16
75312;BME280;63906;55.686;37.532;2023-05-10T10:18:19;100260.59;;;22.89;16.32
75312;BME280;63906;55.686;37.532;2023-05-10T10:23:23;100228.38;;;22.35;17.31
75312;BME280;63906;55.686;37.532;2023-05-10T10:28:49;100260.28;;;22.10;17.59
75312;BME280;63906;55.686;37.532;2023-05-10T10:34:06;100251.56;;;21.59;17.35
75312;BME280;63906;55.686;37.532;2023-05-10T10:39:09;100227.91;;;21.00;17.43
75312;BME280;63906;55.686;37.532;2023-05-10T10:49:23;100220.03;;;23.18;16.36
75312;BME280;63906;55.686;37.532;2023-05-10T10:54:28;100204.03;;;27.60;13.62
75312;BME280;63906;55.686;37.532;2023-05-10T10:59:28;100214.38;;;26.66;13.95
75312;BME280;63906;55.686;37.532;2023-05-10T11:04:29;100220.38;;;24.97;14.50
75312;BME280;63906;55.686;37.532;2023-05-10T11:09:41;100192.22;;;23.44;15.76
75312;BME280;63906;55.686;37.532;2023-05-10T11:14:42;100211.41;;;22.29;15.71
75312;BME280;63906;55.686;37.532;2023-05-10T11:20:06;100186.34;;;20.97;17.38
75312;BME280;63906;55.686;37.532;2023-05-10T11:25:09;100193.47;;;21.42;17.22
75312;BME280;63906;55.686;37.532;2023-05-10T11:30:10;100174.31;;;21.17;16.88
75312;BME280;63906;55.686;37.532;2023-05-10T11:35:12;100180.28;;;20.85;17.28
75312;BME280;63906;55.686;37.532;2023-05-10T11:40:12;100193.50;;;20.75;18.80
75312;BME280;63906;55.686;37.532;2023-05-10T11:45:13;100194.38;;;22.14;17.14
75312;BME280;63906;55.686;37.532;2023-05-10T11:50:14;100183.41;;;24.11;16.50
75312;BME280;63906;55.686;37.532;2023-05-10T11:55:14;100154.22;;;23.68;15.75
75312;BME280;63906;55.686;37.532;2023-05-10T12:00:15;100182.34;;;23.07;16.30
75312;BME280;63906;55.686;37.532;2023-05-10T12:05:16;100167.94;;;22.54;16.72
75312;BME280;63906;55.686;37.532;2023-05-10T12:10:25;100157.47;;;21.77;18.06
75312;BME280;63906;55.686;37.532;2023-05-10T12:15:25;100167.94;;;21.78;17.70
75312;BME280;63906;55.686;37.532;2023-05-10T12:20:28;100139.44;;;21.94;18.62
75312;BME280;63906;55.686;37.532;2023-05-10T12:25:36;100131.94;;;23.20;16.92
75312;BME280;63906;55.686;37.532;2023-05-10T12:30:38;100156.84;;;22.78;17.14
75312;BME280;63906;55.686;37.532;2023-05-10T12:35:49;100144.28;;;22.83;17.33
75312;BME280;63906;55.686;37.532;2023-05-10T12:40:50;100126.72;;;22.07;18.06
75312;BME280;63906;55.686;37.532;2023-05-10T12:45:50;100152.91;;;21.99;18.16
75312;BME280;63906;55.686;37.532;2023-05-10T12:50:51;100112.00;;;21.38;17.94
75312;BME280;63906;55.686;37.532;2023-05-10T12:55:51;100141.56;;;21.10;18.18
75312;BME280;63906;55.686;37.532;2023-05-10T13:00:52;100146.78;;;21.00;18.62
75312;BME280;63906;55.686;37.532;2023-05-10T13:05:53;100123.59;;;20.88;18.37
75312;BME280;63906;55.686;37.532;2023-05-10T13:10:53;100135.31;;;20.20;19.07
75312;BME280;63906;55.686;37.532;2023-05-10T13:15:54;100113.59;;;19.48;19.64
75312;BME280;63906;55.686;37.532;2023-05-10T13:20:54;100108.09;;;18.91;21.67
75312;BME280;63906;55.686;37.532;2023-05-10T13:25:55;100126.19;;;18.89;20.85
75312;BME280;63906;55.686;37.532;2023-05-10T13:30:56;100136.50;;;18.73;20.92
75312;BME280;63906;55.686;37.532;2023-05-10T13:35:57;100098.38;;;18.31;21.42
75312;BME280;63906;55.686;37.532;2023-05-10T13:40:57;100110.00;;;18.48;21.03
75312;BME280;63906;55.686;37.532;2023-05-10T13:45:58;100050.75;;;18.35;21.85
75312;BME280;63906;55.686;37.532;2023-05-10T13:50:58;100078.38;;;18.52;22.14
75312;BME280;63906;55.686;37.532;2023-05-10T13:55:59;100109.25;;;18.71;22.73
75312;BME280;63906;55.686;37.532;2023-05-10T14:00:59;100128.88;;;18.47;23.26
75312;BME280;63906;55.686;37.532;2023-05-10T14:06:00;100095.81;;;18.24;22.63
75312;BME280;63906;55.686;37.532;2023-05-10T14:11:01;100097.66;;;18.24;22.96
75312;BME280;63906;55.686;37.532;2023-05-10T14:16:01;100065.72;;;17.94;23.64
75312;BME280;63906;55.686;37.532;2023-05-10T14:21:03;100104.38;;;18.15;23.67
75312;BME280;63906;55.686;37.532;2023-05-10T14:26:04;100116.91;;;18.26;22.59
75312;BME280;63906;55.686;37.532;2023-05-10T14:31:04;100109.50;;;18.28;21.73
75312;BME280;63906;55.686;37.532;2023-05-10T14:36:06;100064.66;;;17.83;22.15
75312;BME280;63906;55.686;37.532;2023-05-10T14:41:07;100103.00;;;17.94;23.43
75312;BME280;63906;55.686;37.532;2023-05-10T14:46:07;100104.28;;;17.91;24.47
75312;BME280;63906;55.686;37.532;2023-05-10T14:51:08;100072.28;;;17.61;24.29
75312;BME280;63906;55.686;37.532;2023-05-10T14:56:09;100071.94;;;17.58;25.27
75312;BME280;63906;55.686;37.532;2023-05-10T15:01:10;100093.91;;;17.53;25.46
75312;BME280;63906;55.686;37.532;2023-05-10T15:06:13;100093.09;;;17.34;25.23
75312;BME280;63906;55.686;37.532;2023-05-10T15:11:14;100070.69;;;17.23;24.04
75312;BME280;63906;55.686;37.532;2023-05-10T15:16:14;100099.31;;;17.28;24.33
75312;BME280;63906;55.686;37.532;2023-05-10T15:21:15;100099.56;;;17.20;24.02
75312;BME280;63906;55.686;37.532;2023-05-10T15:26:16;100100.25;;;17.15;26.28
75312;BME280;63906;55.686;37.532;2023-05-10T15:31:16;100068.31;;;16.79;26.61
75312;BME280;63906;55.686;37.532;2023-05-10T15:36:16;100089.03;;;16.70;26.68
75312;BME280;63906;55.686;37.532;2023-05-10T15:41:18;100091.00;;;16.50;26.13
75312;BME280;63906;55.686;37.532;2023-05-10T15:46:18;100094.59;;;16.37;26.43
75312;BME280;63906;55.686;37.532;2023-05-10T15:51:19;100061.13;;;16.04;26.81
75312;BME280;63906;55.686;37.532;2023-05-10T15:56:19;100064.44;;;15.93;28.08
75312;BME280;63906;55.686;37.532;2023-05-10T16:01:20;100064.72;;;15.85;27.93
75312;BME280;63906;55.686;37.532;2023-05-10T16:06:21;100073.09;;;15.82;28.89
75312;BME280;63906;55.686;37.532;2023-05-10T16:11:21;100012.13;;;15.24;29.22
75312;BME280;63906;55.686;37.532;2023-05-10T16:16:22;100079.72;;;15.59;27.94
75312;BME280;63906;55.686;37.532;2023-05-10T16:21:22;100058.59;;;15.33;28.01
75312;BME280;63906;55.686;37.532;2023-05-10T16:26:23;100037.47;;;15.06;29.92
75312;BME280;63906;55.686;37.532;2023-05-10T16:31:24;100072.13;;;15.12;31.16
75312;BME280;63906;55.686;37.532;2023-05-10T16:36:24;100046.50;;;14.79;31.82
75312;BME280;63906;55.686;37.532;2023-05-10T16:41:25;100044.28;;;14.63;31.75
75312;BME280;63906;55.686;37.532;2023-05-10T16:46:26;100057.53;;;14.49;32.13
75312;BME280;63906;55.686;37.532;2023-05-10T16:51:26;100094.22;;;14.52;33.39
75312;BME280;63906;55.686;37.532;2023-05-10T16:56:28;100071.34;;;14.25;33.92
75312;BME280;63906;55.686;37.532;2023-05-10T17:01:28;100088.06;;;14.19;34.27
75312;BME280;63906;55.686;37.532;2023-05-10T17:06:29;100094.16;;;14.06;34.44
75312;BME280;63906;55.686;37.532;2023-05-10T17:11:31;100103.25;;;13.90;35.82
75312;BME280;63906;55.686;37.532;2023-05-10T17:16:31;100070.25;;;13.66;35.62
75312;BME280;63906;55.686;37.532;2023-05-10T17:21:32;99999.81;;;13.11;35.49
75312;BME280;63906;55.686;37.532;2023-05-10T17:26:32;100094.00;;;13.60;35.93
75312;BME280;63906;55.686;37.532;2023-05-10T17:31:34;100073.16;;;13.37;35.75
75312;BME280;63906;55.686;37.532;2023-05-10T17:36:34;100047.28;;;12.98;36.97
75312;BME280;63906;55.686;37.532;2023-05-10T17:41:35;100112.19;;;13.35;38.28
75312;BME280;63906;55.686;37.532;2023-05-10T17:46:36;100089.44;;;13.06;38.21
75312;BME280;63906;55.686;37.532;2023-05-10T17:51:37;100115.09;;;13.12;38.88
75312;BME280;63906;55.686;37.532;2023-05-10T17:56:38;100079.69;;;12.78;39.43
75312;BME280;63906;55.686;37.532;2023-05-10T18:01:38;100124.63;;;13.06;39.65
75312;BME280;63906;55.686;37.532;2023-05-10T18:06:40;100095.38;;;12.80;40.13
75312;BME280;63906;55.686;37.532;2023-05-10T18:11:41;100100.84;;;12.78;39.81
75312;BME280;63906;55.686;37.532;2023-05-10T18:16:41;100113.03;;;12.79;40.31
75312;BME280;63906;55.686;37.532;2023-05-10T18:21:42;100119.06;;;12.73;41.51
75312;BME280;63906;55.686;37.532;2023-05-10T18:26:43;100070.41;;;12.33;41.37
75312;BME280;63906;55.686;37.532;2023-05-10T18:31:43;100106.53;;;12.54;40.75
75312;BME280;63906;55.686;37.532;2023-05-10T18:36:44;100130.44;;;12.67;41.41
75312;BME280;63906;55.686;37.532;2023-05-10T18:41:44;100109.94;;;12.48;41.82
75312;BME280;63906;55.686;37.532;2023-05-10T18:46:45;100129.03;;;12.71;38.27
75312;BME280;63906;55.686;37.532;2023-05-10T18:51:46;100069.53;;;12.75;35.41
75312;BME280;63906;55.686;37.532;2023-05-10T18:56:49;100109.78;;;13.88;32.55
75312;BME280;63906;55.686;37.532;2023-05-10T19:01:50;100097.41;;;14.08;34.96
75312;BME280;63906;55.686;37.532;2023-05-10T19:06:54;100128.78;;;14.18;35.29
75312;BME280;63906;55.686;37.532;2023-05-10T19:12:17;100085.50;;;13.71;36.85
75312;BME280;63906;55.686;37.532;2023-05-10T19:17:18;100123.75;;;13.68;37.85
75312;BME280;63906;55.686;37.532;2023-05-10T19:22:19;100095.09;;;13.31;38.49
75312;BME280;63906;55.686;37.532;2023-05-10T19:27:19;100118.66;;;13.26;38.48
75312;BME280;63906;55.686;37.532;2023-05-10T19:32:20;100065.03;;;12.69;38.46
75312;BME280;63906;55.686;37.532;2023-05-10T19:37:20;100107.81;;;12.86;39.00
75312;BME280;63906;55.686;37.532;2023-05-10T19:42:21;100108.13;;;12.76;39.08
75312;BME280;63906;55.686;37.532;2023-05-10T19:47:24;100129.88;;;12.78;40.20
75312;BME280;63906;55.686;37.532;2023-05-10T19:52:25;100101.91;;;12.56;40.30
75312;BME280;63906;55.686;37.532;2023-05-10T19:57:26;100124.91;;;12.62;40.89
75312;BME280;63906;55.686;37.532;2023-05-10T20:02:26;100097.44;;;12.35;41.21
75312;BME280;63906;55.686;37.532;2023-05-10T20:07:27;100109.00;;;12.34;41.10
75312;BME280;63906;55.686;37.532;2023-05-10T20:12:27;100101.44;;;12.74;36.34
75312;BME280;63906;55.686;37.532;2023-05-10T20:17:28;100095.88;;;12.97;36.29
75312;BME280;63906;55.686;37.532;2023-05-10T20:22:30;100129.53;;;13.16;39.23
75312;BME280;63906;55.686;37.532;2023-05-10T20:27:30;100118.03;;;12.96;39.75
75312;BME280;63906;55.686;37.532;2023-05-10T20:32:31;100126.03;;;12.74;40.45
75312;BME280;63906;55.686;37.532;2023-05-10T20:37:32;100098.06;;;12.37;41.43
75312;BME280;63906;55.686;37.532;2023-05-10T20:42:32;100113.88;;;12.30;41.82
75312;BME280;63906;55.686;37.532;2023-05-10T20:47:34;100048.34;;;11.76;42.85
75312;BME280;63906;55.686;37.532;2023-05-10T20:52:35;100122.22;;;12.12;43.10
75312;BME280;63906;55.686;37.532;2023-05-10T20:57:35;100118.44;;;12.00;43.25
75312;BME280;63906;55.686;37.532;2023-05-10T21:02:36;100106.06;;;11.86;44.05
75312;BME280;63906;55.686;37.532;2023-05-10T21:07:36;100123.63;;;11.94;44.54
75312;BME280;63906;55.686;37.532;2023-05-10T21:12:38;100091.72;;;11.74;45.03
75312;BME280;63906;55.686;37.532;2023-05-10T21:17:39;100076.66;;;11.53;45.00
75312;BME280;63906;55.686;37.532;2023-05-10T21:22:39;100094.03;;;11.62;45.54
75312;BME280;63906;55.686;37.532;2023-05-10T21:27:40;100095.13;;;11.53;45.83
75312;BME280;63906;55.686;37.532;2023-05-10T21:32:43;100105.66;;;11.53;46.56
75312;BME280;63906;55.686;37.532;2023-05-10T21:37:44;100125.59;;;11.55;46.35
75312;BME280;63906;55.686;37.532;2023-05-10T21:42:53;100119.31;;;11.42;47.33
75312;BME280;63906;55.686;37.532;2023-05-10T21:47:58;100111.50;;;11.33;47.58
75312;BME280;63906;55.686;37.532;2023-05-10T21:52:59;100106.41;;;11.17;47.04
75312;BME280;63906;55.686;37.532;2023-05-10T21:58:03;100126.31;;;11.35;47.76
75312;BME280;63906;55.686;37.532;2023-05-10T22:03:03;100103.53;;;11.12;47.94
75312;BME280;63906;55.686;37.532;2023-05-10T22:08:05;100116.59;;;11.20;48.55
75312;BME280;63906;55.686;37.532;2023-05-10T22:13:06;100127.94;;;11.21;48.74
75312;BME280;63906;55.686;37.532;2023-05-10T22:18:06;100103.31;;;10.99;48.25
75312;BME280;63906;55.686;37.532;2023-05-10T22:23:07;100133.84;;;11.08;49.21
75312;BME280;63906;55.686;37.532;2023-05-10T22:28:07;100128.66;;;11.00;50.03
75312;BME280;63906;55.686;37.532;2023-05-10T22:33:08;100125.38;;;10.98;50.15
75312;BME280;63906;55.686;37.532;2023-05-10T22:38:09;100089.41;;;10.75;49.88
75312;BME280;63906;55.686;37.532;2023-05-10T22:43:40;100132.13;;;11.00;50.44
75312;BME280;63906;55.686;37.532;2023-05-10T22:48:44;100134.47;;;10.95;51.13
75312;BME280;63906;55.686;37.532;2023-05-10T22:53:45;100117.75;;;10.88;50.95
75312;BME280;63906;55.686;37.532;2023-05-10T22:58:45;100102.91;;;10.72;51.00
75312;BME280;63906;55.686;37.532;2023-05-10T23:03:46;100123.19;;;10.87;51.26
75312;BME280;63906;55.686;37.532;2023-05-10T23:08:46;100124.03;;;10.87;51.36
75312;BME280;63906;55.686;37.532;2023-05-10T23:13:47;100097.31;;;10.75;52.07
75312;BME280;63906;55.686;37.532;2023-05-10T23:18:47;100088.34;;;10.62;51.51
75312;BME280;63906;55.686;37.532;2023-05-10T23:23:48;100145.72;;;10.89;52.16
75312;BME280;63906;55.686;37.532;2023-05-10T23:28:48;100113.00;;;10.69;51.86
75312;BME280;63906;55.686;37.532;2023-05-10T23:33:49;100118.41;;;10.67;52.37
75312;BME280;63906;55.686;37.532;2023-05-10T23:38:50;100115.25;;;10.57;52.98
75312;BME280;63906;55.686;37.532;2023-05-10T23:43:50;100142.78;;;10.69;52.58
75312;BME280;63906;55.686;37.532;2023-05-10T23:48:51;100155.47;;;10.66;53.09
75312;BME280;63906;55.686;37.532;2023-05-10T23:53:52;100115.16;;;10.42;53.52
75312;BME280;63906;55.686;37.532;2023-05-10T23:58:52;100130.75;;;10.52;53.74
